sensor_id;sensor_type;location;lat;lon;timestamp;P1;durP1;ratioP1;P2;durP2;ratioP2
62796;SDS011;48839;48.546;-4.178;2023-02-11T00:01:07;12.52;;;8.70;;
62796;SDS011;48839;48.546;-4.178;2023-02-11T00:03:34;15.15;;;8.30;;
62796;SDS011;48839;48.546;-4.178;2023-02-11T00:06:00;15.65;;;8.30;;
62796;SDS011;48839;48.546;-4.178;2023-02-11T00:08:27;12.88;;;6.75;;
62796;SDS011;48839;48.546;-4.178;2023-02-11T00:10:53;26.30;;;10.52;;
62796;SDS011;48839;48.546;-4.178;2023-02-11T00:13:21;29.55;;;9.82;;
62796;SDS011;48839;48.546;-4.178;2023-02-11T00:15:47;17.02;;;7.15;;
62796;SDS011;48839;48.546;-4.178;2023-02-11T00:18:13;20.25;;;8.48;;
62796;SDS011;48839;48.546;-4.178;2023-02-11T00:20:39;19.88;;;8.60;;
62796;SDS011;48839;48.546;-4.178;2023-02-11T00:23:06;33.85;;;9.07;;
62796;SDS011;48839;48.546;-4.178;2023-02-11T00:25:32;17.23;;;8.77;;
62796;SDS011;48839;48.546;-4.178;2023-02-11T00:27:58;15.95;;;8.40;;
62796;SDS011;48839;48.546;-4.178;2023-02-11T00:30:24;15.52;;;8.85;;
62796;SDS011;48839;48.546;-4.178;2023-02-11T00:32:50;14.07;;;8.48;;
62796;SDS011;48839;48.546;-4.178;2023-02-11T00:35:16;17.65;;;7.80;;
62796;SDS011;48839;48.546;-4.178;2023-02-11T00:37:42;22.35;;;10.50;;
62796;SDS011;48839;48.546;-4.178;2023-02-11T00:40:08;24.55;;;11.13;;
62796;SDS011;48839;48.546;-4.178;2023-02-11T00:42:34;14.27;;;9.65;;
62796;SDS011;48839;48.546;-4.178;2023-02-11T00:45:01;16.52;;;9.18;;
62796;SDS011;48839;48.546;-4.178;2023-02-11T00:47:27;16.05;;;8.65;;
62796;SDS011;48839;48.546;-4.178;2023-02-11T00:49:53;32.65;;;11.80;;
62796;SDS011;48839;48.546;-4.178;2023-02-11T00:52:19;13.50;;;8.10;;
62796;SDS011;48839;48.546;-4.178;2023-02-11T00:54:45;12.95;;;8.02;;
62796;SDS011;48839;48.546;-4.178;2023-02-11T00:57:11;13.55;;;7.22;;
62796;SDS011;48839;48.546;-4.178;2023-02-11T00:59:37;12.10;;;7.60;;
62796;SDS011;48839;48.546;-4.178;2023-02-11T01:02:04;11.60;;;7.20;;
62796;SDS011;48839;48.546;-4.178;2023-02-11T01:04:30;9.80;;;7.15;;
62796;SDS011;48839;48.546;-4.178;2023-02-11T01:06:56;14.63;;;8.10;;
62796;SDS011;48839;48.546;-4.178;2023-02-11T01:09:22;15.88;;;8.55;;
62796;SDS011;48839;48.546;-4.178;2023-02-11T01:11:48;15.00;;;8.88;;
62796;SDS011;48839;48.546;-4.178;2023-02-11T01:14:14;13.85;;;9.13;;
62796;SDS011;48839;48.546;-4.178;2023-02-11T01:16:40;10.57;;;8.02;;
62796;SDS011;48839;48.546;-4.178;2023-02-11T01:19:06;14.00;;;8.43;;
62796;SDS011;48839;48.546;-4.178;2023-02-11T01:21:32;14.70;;;9.80;;
62796;SDS011;48839;48.546;-4.178;2023-02-11T01:23:58;13.52;;;8.38;;
62796;SDS011;48839;48.546;-4.178;2023-02-11T01:26:24;12.40;;;8.63;;
62796;SDS011;48839;48.546;-4.178;2023-02-11T01:28:50;13.48;;;8.25;;
62796;SDS011;48839;48.546;-4.178;2023-02-11T01:31:16;11.02;;;8.15;;
62796;SDS011;48839;48.546;-4.178;2023-02-11T01:33:42;11.25;;;8.73;;
62796;SDS011;48839;48.546;-4.178;2023-02-11T01:36:09;13.80;;;9.32;;
62796;SDS011;48839;48.546;-4.178;2023-02-11T01:38:36;12.00;;;9.10;;
62796;SDS011;48839;48.546;-4.178;2023-02-11T01:41:03;13.68;;;9.23;;
62796;SDS011;48839;48.546;-4.178;2023-02-11T01:43:31;17.67;;;9.75;;
62796;SDS011;48839;48.546;-4.178;2023-02-11T01:45:59;13.55;;;9.52;;
62796;SDS011;48839;48.546;-4.178;2023-02-11T01:48:30;14.20;;;10.07;;
62796;SDS011;48839;48.546;-4.178;2023-02-11T01:51:02;14.13;;;9.45;;
62796;SDS011;48839;48.546;-4.178;2023-02-11T01:53:29;12.40;;;9.00;;
62796;SDS011;48839;48.546;-4.178;2023-02-11T01:56:15;14.98;;;10.07;;
62796;SDS011;48839;48.546;-4.178;2023-02-11T01:59:02;15.48;;;9.73;;
62796;SDS011;48839;48.546;-4.178;2023-02-11T02:01:30;18.10;;;9.88;;
62796;SDS011;48839;48.546;-4.178;2023-02-11T02:03:58;21.23;;;10.95;;
62796;SDS011;48839;48.546;-4.178;2023-02-11T02:06:33;21.50;;;12.93;;
62796;SDS011;48839;48.546;-4.178;2023-02-11T02:11:29;16.15;;;10.20;;
62796;SDS011;48839;48.546;-4.178;2023-02-11T02:13:55;18.80;;;11.50;;
62796;SDS011;48839;48.546;-4.178;2023-02-11T02:16:21;16.52;;;10.02;;
62796;SDS011;48839;48.546;-4.178;2023-02-11T02:34:06;24.10;;;12.02;;
62796;SDS011;48839;48.546;-4.178;2023-02-11T02:39:05;21.45;;;12.00;;
62796;SDS011;48839;48.546;-4.178;2023-02-11T02:41:33;19.05;;;12.07;;
62796;SDS011;48839;48.546;-4.178;2023-02-11T02:43:59;19.15;;;10.38;;
62796;SDS011;48839;48.546;-4.178;2023-02-11T02:46:32;17.15;;;10.55;;
62796;SDS011;48839;48.546;-4.178;2023-02-11T02:48:59;14.70;;;9.85;;
62796;SDS011;48839;48.546;-4.178;2023-02-11T02:59:11;15.82;;;10.65;;
62796;SDS011;48839;48.546;-4.178;2023-02-11T03:04:06;19.60;;;11.10;;
62796;SDS011;48839;48.546;-4.178;2023-02-11T03:06:51;20.05;;;10.68;;
62796;SDS011;48839;48.546;-4.178;2023-02-11T03:09:23;16.85;;;10.10;;
62796;SDS011;48839;48.546;-4.178;2023-02-11T03:11:50;16.48;;;10.32;;
62796;SDS011;48839;48.546;-4.178;2023-02-11T03:14:16;19.95;;;11.07;;
62796;SDS011;48839;48.546;-4.178;2023-02-11T03:16:43;14.50;;;11.25;;
62796;SDS011;48839;48.546;-4.178;2023-02-11T03:19:11;18.45;;;9.85;;
62796;SDS011;48839;48.546;-4.178;2023-02-11T03:21:38;21.02;;;11.55;;
62796;SDS011;48839;48.546;-4.178;2023-02-11T03:24:06;22.40;;;11.15;;
62796;SDS011;48839;48.546;-4.178;2023-02-11T03:26:39;16.45;;;9.43;;
62796;SDS011;48839;48.546;-4.178;2023-02-11T03:34:51;15.75;;;9.82;;
62796;SDS011;48839;48.546;-4.178;2023-02-11T03:37:24;16.38;;;9.10;;
62796;SDS011;48839;48.546;-4.178;2023-02-11T03:39:56;15.48;;;10.25;;
62796;SDS011;48839;48.546;-4.178;2023-02-11T03:42:26;15.60;;;9.80;;
62796;SDS011;48839;48.546;-4.178;2023-02-11T03:44:59;19.40;;;10.60;;
62796;SDS011;48839;48.546;-4.178;2023-02-11T03:47:28;24.90;;;10.45;;
62796;SDS011;48839;48.546;-4.178;2023-02-11T03:49:56;15.73;;;9.80;;
62796;SDS011;48839;48.546;-4.178;2023-02-11T03:52:25;17.55;;;10.65;;
62796;SDS011;48839;48.546;-4.178;2023-02-11T03:54:54;15.13;;;9.40;;
62796;SDS011;48839;48.546;-4.178;2023-02-11T03:57:20;14.85;;;9.63;;
62796;SDS011;48839;48.546;-4.178;2023-02-11T03:59:56;14.90;;;9.07;;
62796;SDS011;48839;48.546;-4.178;2023-02-11T04:02:24;16.98;;;10.27;;
62796;SDS011;48839;48.546;-4.178;2023-02-11T04:04:51;19.25;;;9.10;;
62796;SDS011;48839;48.546;-4.178;2023-02-11T04:07:18;19.67;;;8.38;;
62796;SDS011;48839;48.546;-4.178;2023-02-11T04:09:43;15.52;;;8.88;;
62796;SDS011;48839;48.546;-4.178;2023-02-11T04:12:10;20.00;;;10.45;;
62796;SDS011;48839;48.546;-4.178;2023-02-11T04:14:36;13.80;;;8.80;;
62796;SDS011;48839;48.546;-4.178;2023-02-11T04:17:02;14.50;;;8.85;;
62796;SDS011;48839;48.546;-4.178;2023-02-11T04:19:28;18.10;;;9.30;;
62796;SDS011;48839;48.546;-4.178;2023-02-11T04:21:54;15.13;;;8.38;;
62796;SDS011;48839;48.546;-4.178;2023-02-11T04:24:20;14.90;;;8.57;;
62796;SDS011;48839;48.546;-4.178;2023-02-11T04:26:46;17.80;;;9.05;;
62796;SDS011;48839;48.546;-4.178;2023-02-11T04:29:12;16.85;;;9.65;;
62796;SDS011;48839;48.546;-4.178;2023-02-11T04:31:38;14.75;;;9.23;;
62796;SDS011;48839;48.546;-4.178;2023-02-11T04:34:04;17.70;;;9.90;;
62796;SDS011;48839;48.546;-4.178;2023-02-11T04:36:30;11.80;;;7.97;;
62796;SDS011;48839;48.546;-4.178;2023-02-11T04:38:56;13.95;;;9.05;;
62796;SDS011;48839;48.546;-4.178;2023-02-11T04:41:22;16.33;;;9.70;;
62796;SDS011;48839;48.546;-4.178;2023-02-11T04:43:48;16.88;;;9.32;;
62796;SDS011;48839;48.546;-4.178;2023-02-11T04:46:14;16.08;;;9.38;;
62796;SDS011;48839;48.546;-4.178;2023-02-11T04:48:40;10.25;;;7.72;;
62796;SDS011;48839;48.546;-4.178;2023-02-11T04:51:06;11.50;;;7.53;;
62796;SDS011;48839;48.546;-4.178;2023-02-11T04:53:32;15.75;;;8.45;;
62796;SDS011;48839;48.546;-4.178;2023-02-11T04:55:58;15.07;;;9.60;;
62796;SDS011;48839;48.546;-4.178;2023-02-11T04:58:24;11.93;;;8.48;;
62796;SDS011;48839;48.546;-4.178;2023-02-11T05:00:50;13.13;;;8.00;;
62796;SDS011;48839;48.546;-4.178;2023-02-11T05:03:16;16.38;;;9.07;;
62796;SDS011;48839;48.546;-4.178;2023-02-11T05:05:42;14.95;;;8.13;;
62796;SDS011;48839;48.546;-4.178;2023-02-11T05:08:09;12.80;;;8.00;;
62796;SDS011;48839;48.546;-4.178;2023-02-11T05:10:35;11.52;;;7.50;;
62796;SDS011;48839;48.546;-4.178;2023-02-11T05:13:01;18.77;;;8.25;;
62796;SDS011;48839;48.546;-4.178;2023-02-11T05:15:27;12.75;;;8.27;;
62796;SDS011;48839;48.546;-4.178;2023-02-11T05:17:53;13.27;;;7.93;;
62796;SDS011;48839;48.546;-4.178;2023-02-11T05:20:20;13.75;;;8.77;;
62796;SDS011;48839;48.546;-4.178;2023-02-11T05:22:46;18.75;;;9.13;;
62796;SDS011;48839;48.546;-4.178;2023-02-11T05:25:12;13.95;;;7.28;;
62796;SDS011;48839;48.546;-4.178;2023-02-11T05:27:38;13.88;;;7.75;;
62796;SDS011;48839;48.546;-4.178;2023-02-11T05:30:04;14.43;;;8.05;;
62796;SDS011;48839;48.546;-4.178;2023-02-11T05:32:31;12.27;;;6.78;;
62796;SDS011;48839;48.546;-4.178;2023-02-11T05:34:57;13.13;;;7.72;;
62796;SDS011;48839;48.546;-4.178;2023-02-11T05:37:23;13.43;;;8.63;;
62796;SDS011;48839;48.546;-4.178;2023-02-11T05:39:49;11.80;;;7.20;;
62796;SDS011;48839;48.546;-4.178;2023-02-11T05:42:15;11.43;;;7.25;;
62796;SDS011;48839;48.546;-4.178;2023-02-11T05:44:41;16.23;;;7.20;;
62796;SDS011;48839;48.546;-4.178;2023-02-11T05:47:07;13.00;;;8.00;;
62796;SDS011;48839;48.546;-4.178;2023-02-11T05:49:33;13.52;;;8.18;;
62796;SDS011;48839;48.546;-4.178;2023-02-11T05:51:59;15.23;;;7.45;;
62796;SDS011;48839;48.546;-4.178;2023-02-11T05:54:25;11.85;;;6.90;;
62796;SDS011;48839;48.546;-4.178;2023-02-11T05:56:51;12.45;;;6.93;;
62796;SDS011;48839;48.546;-4.178;2023-02-11T05:59:17;13.07;;;6.95;;
62796;SDS011;48839;48.546;-4.178;2023-02-11T06:01:44;11.63;;;6.75;;
62796;SDS011;48839;48.546;-4.178;2023-02-11T06:04:10;13.68;;;6.53;;
62796;SDS011;48839;48.546;-4.178;2023-02-11T06:06:36;11.40;;;7.38;;
62796;SDS011;48839;48.546;-4.178;2023-02-11T06:09:02;13.45;;;6.95;;
62796;SDS011;48839;48.546;-4.178;2023-02-11T06:11:28;12.70;;;6.75;;
62796;SDS011;48839;48.546;-4.178;2023-02-11T06:13:54;11.80;;;6.35;;
62796;SDS011;48839;48.546;-4.178;2023-02-11T06:16:20;11.85;;;6.60;;
62796;SDS011;48839;48.546;-4.178;2023-02-11T06:18:46;13.57;;;6.13;;
62796;SDS011;48839;48.546;-4.178;2023-02-11T06:21:12;14.15;;;6.93;;
62796;SDS011;48839;48.546;-4.178;2023-02-11T06:23:38;13.25;;;7.20;;
62796;SDS011;48839;48.546;-4.178;2023-02-11T06:26:05;14.65;;;6.90;;
62796;SDS011;48839;48.546;-4.178;2023-02-11T06:28:31;11.88;;;6.93;;
62796;SDS011;48839;48.546;-4.178;2023-02-11T06:30:58;10.30;;;5.97;;
62796;SDS011;48839;48.546;-4.178;2023-02-11T06:33:24;10.45;;;6.40;;
62796;SDS011;48839;48.546;-4.178;2023-02-11T06:35:50;12.20;;;6.40;;
62796;SDS011;48839;48.546;-4.178;2023-02-11T06:38:16;10.80;;;6.38;;
62796;SDS011;48839;48.546;-4.178;2023-02-11T06:40:46;13.43;;;5.97;;
62796;SDS011;48839;48.546;-4.178;2023-02-11T06:43:12;9.65;;;5.95;;
62796;SDS011;48839;48.546;-4.178;2023-02-11T06:45:38;11.65;;;5.97;;
62796;SDS011;48839;48.546;-4.178;2023-02-11T06:48:04;14.10;;;5.65;;
62796;SDS011;48839;48.546;-4.178;2023-02-11T06:50:30;9.95;;;6.18;;
62796;SDS011;48839;48.546;-4.178;2023-02-11T06:52:57;21.33;;;11.32;;
62796;SDS011;48839;48.546;-4.178;2023-02-11T06:55:24;10.45;;;6.28;;
62796;SDS011;48839;48.546;-4.178;2023-02-11T06:57:50;9.48;;;5.10;;
62796;SDS011;48839;48.546;-4.178;2023-02-11T07:00:16;9.82;;;6.28;;
62796;SDS011;48839;48.546;-4.178;2023-02-11T07:02:42;10.27;;;6.32;;
62796;SDS011;48839;48.546;-4.178;2023-02-11T07:05:08;11.50;;;5.65;;
62796;SDS011;48839;48.546;-4.178;2023-02-11T07:07:34;9.82;;;5.45;;
62796;SDS011;48839;48.546;-4.178;2023-02-11T07:10:00;16.33;;;9.40;;
62796;SDS011;48839;48.546;-4.178;2023-02-11T07:12:30;9.82;;;6.50;;
62796;SDS011;48839;48.546;-4.178;2023-02-11T07:14:56;13.95;;;6.68;;
62796;SDS011;48839;48.546;-4.178;2023-02-11T07:17:22;9.93;;;5.95;;
62796;SDS011;48839;48.546;-4.178;2023-02-11T07:19:48;11.60;;;6.68;;
62796;SDS011;48839;48.546;-4.178;2023-02-11T07:22:14;9.90;;;6.40;;
62796;SDS011;48839;48.546;-4.178;2023-02-11T07:24:40;12.75;;;5.90;;
62796;SDS011;48839;48.546;-4.178;2023-02-11T07:27:06;11.95;;;7.53;;
62796;SDS011;48839;48.546;-4.178;2023-02-11T07:29:32;12.85;;;8.48;;
62796;SDS011;48839;48.546;-4.178;2023-02-11T07:31:58;17.15;;;8.95;;
62796;SDS011;48839;48.546;-4.178;2023-02-11T07:34:24;12.45;;;6.95;;
62796;SDS011;48839;48.546;-4.178;2023-02-11T07:36:50;11.82;;;6.65;;
62796;SDS011;48839;48.546;-4.178;2023-02-11T07:39:16;41.75;;;19.13;;
62796;SDS011;48839;48.546;-4.178;2023-02-11T07:41:44;16.35;;;8.95;;
62796;SDS011;48839;48.546;-4.178;2023-02-11T07:44:11;10.35;;;6.43;;
62796;SDS011;48839;48.546;-4.178;2023-02-11T07:46:37;22.77;;;9.68;;
62796;SDS011;48839;48.546;-4.178;2023-02-11T07:49:07;14.38;;;7.65;;
62796;SDS011;48839;48.546;-4.178;2023-02-11T07:51:33;17.13;;;6.88;;
62796;SDS011;48839;48.546;-4.178;2023-02-11T07:53:59;11.48;;;6.72;;
62796;SDS011;48839;48.546;-4.178;2023-02-11T07:56:26;14.75;;;6.80;;
62796;SDS011;48839;48.546;-4.178;2023-02-11T07:58:52;13.02;;;6.93;;
62796;SDS011;48839;48.546;-4.178;2023-02-11T08:01:19;17.98;;;9.43;;
62796;SDS011;48839;48.546;-4.178;2023-02-11T08:03:46;16.02;;;8.82;;
62796;SDS011;48839;48.546;-4.178;2023-02-11T08:06:13;19.23;;;9.93;;
62796;SDS011;48839;48.546;-4.178;2023-02-11T08:08:40;15.70;;;8.00;;
62796;SDS011;48839;48.546;-4.178;2023-02-11T08:11:10;11.63;;;6.97;;
62796;SDS011;48839;48.546;-4.178;2023-02-11T08:13:37;10.90;;;5.95;;
62796;SDS011;48839;48.546;-4.178;2023-02-11T08:16:03;12.82;;;6.88;;
62796;SDS011;48839;48.546;-4.178;2023-02-11T08:18:30;8.30;;;5.20;;
62796;SDS011;48839;48.546;-4.178;2023-02-11T08:21:02;22.83;;;11.27;;
62796;SDS011;48839;48.546;-4.178;2023-02-11T08:23:28;10.60;;;5.88;;
62796;SDS011;48839;48.546;-4.178;2023-02-11T08:25:54;18.58;;;9.20;;
62796;SDS011;48839;48.546;-4.178;2023-02-11T08:28:20;25.25;;;12.05;;
62796;SDS011;48839;48.546;-4.178;2023-02-11T08:30:46;27.05;;;12.82;;
62796;SDS011;48839;48.546;-4.178;2023-02-11T08:33:12;24.83;;;10.95;;
62796;SDS011;48839;48.546;-4.178;2023-02-11T08:35:38;11.50;;;7.15;;
62796;SDS011;48839;48.546;-4.178;2023-02-11T08:38:05;12.32;;;6.30;;
62796;SDS011;48839;48.546;-4.178;2023-02-11T08:40:31;13.52;;;7.05;;
62796;SDS011;48839;48.546;-4.178;2023-02-11T08:42:57;9.38;;;6.68;;
62796;SDS011;48839;48.546;-4.178;2023-02-11T08:45:23;13.48;;;7.20;;
62796;SDS011;48839;48.546;-4.178;2023-02-11T08:47:49;14.60;;;6.55;;
62796;SDS011;48839;48.546;-4.178;2023-02-11T08:50:15;9.23;;;5.75;;
62796;SDS011;48839;48.546;-4.178;2023-02-11T08:52:41;16.20;;;6.80;;
62796;SDS011;48839;48.546;-4.178;2023-02-11T08:55:08;10.85;;;6.35;;
62796;SDS011;48839;48.546;-4.178;2023-02-11T08:57:34;12.48;;;6.95;;
62796;SDS011;48839;48.546;-4.178;2023-02-11T09:00:00;31.40;;;15.45;;
62796;SDS011;48839;48.546;-4.178;2023-02-11T09:02:26;12.45;;;7.18;;
62796;SDS011;48839;48.546;-4.178;2023-02-11T09:04:53;13.52;;;8.18;;
62796;SDS011;48839;48.546;-4.178;2023-02-11T09:07:19;12.80;;;5.85;;
62796;SDS011;48839;48.546;-4.178;2023-02-11T09:09:45;11.75;;;7.30;;
62796;SDS011;48839;48.546;-4.178;2023-02-11T09:12:11;13.20;;;7.28;;
62796;SDS011;48839;48.546;-4.178;2023-02-11T09:14:37;10.65;;;6.47;;
62796;SDS011;48839;48.546;-4.178;2023-02-11T09:17:03;10.43;;;5.97;;
62796;SDS011;48839;48.546;-4.178;2023-02-11T09:19:29;11.80;;;7.38;;
62796;SDS011;48839;48.546;-4.178;2023-02-11T09:21:55;14.90;;;6.85;;
62796;SDS011;48839;48.546;-4.178;2023-02-11T09:24:21;13.25;;;7.00;;
62796;SDS011;48839;48.546;-4.178;2023-02-11T09:26:47;10.68;;;6.50;;
62796;SDS011;48839;48.546;-4.178;2023-02-11T09:29:13;12.30;;;6.82;;
62796;SDS011;48839;48.546;-4.178;2023-02-11T09:31:39;11.85;;;6.72;;
62796;SDS011;48839;48.546;-4.178;2023-02-11T09:34:05;13.25;;;7.00;;
62796;SDS011;48839;48.546;-4.178;2023-02-11T09:36:33;13.43;;;7.28;;
62796;SDS011;48839;48.546;-4.178;2023-02-11T09:39:01;11.13;;;7.00;;
62796;SDS011;48839;48.546;-4.178;2023-02-11T09:43:57;11.75;;;7.68;;
62796;SDS011;48839;48.546;-4.178;2023-02-11T09:46:24;15.25;;;7.38;;
62796;SDS011;48839;48.546;-4.178;2023-02-11T09:48:52;12.27;;;7.05;;
62796;SDS011;48839;48.546;-4.178;2023-02-11T09:51:30;14.40;;;7.60;;
62796;SDS011;48839;48.546;-4.178;2023-02-11T09:53:59;18.20;;;9.32;;
62796;SDS011;48839;48.546;-4.178;2023-02-11T09:56:26;13.73;;;8.27;;
62796;SDS011;48839;48.546;-4.178;2023-02-11T09:58:53;16.77;;;7.38;;
62796;SDS011;48839;48.546;-4.178;2023-02-11T10:06:34;15.70;;;7.43;;
62796;SDS011;48839;48.546;-4.178;2023-02-11T10:19:55;10.02;;;5.93;;
62796;SDS011;48839;48.546;-4.178;2023-02-11T10:24:58;8.48;;;5.20;;
62796;SDS011;48839;48.546;-4.178;2023-02-11T10:27:31;5.32;;;3.65;;
62796;SDS011;48839;48.546;-4.178;2023-02-11T10:30:03;5.10;;;4.43;;
62796;SDS011;48839;48.546;-4.178;2023-02-11T10:34:57;5.32;;;4.22;;
62796;SDS011;48839;48.546;-4.178;2023-02-11T10:37:25;4.10;;;3.00;;
62796;SDS011;48839;48.546;-4.178;2023-02-11T10:39:51;3.83;;;2.60;;
62796;SDS011;48839;48.546;-4.178;2023-02-11T10:42:17;3.72;;;2.35;;
62796;SDS011;48839;48.546;-4.178;2023-02-11T10:44:56;4.88;;;2.72;;
62796;SDS011;48839;48.546;-4.178;2023-02-11T10:47:25;3.35;;;2.45;;
62796;SDS011;48839;48.546;-4.178;2023-02-11T10:49:52;5.22;;;2.55;;
62796;SDS011;48839;48.546;-4.178;2023-02-11T10:52:24;2.42;;;2.20;;
62796;SDS011;48839;48.546;-4.178;2023-02-11T10:55:02;2.45;;;2.25;;
62796;SDS011;48839;48.546;-4.178;2023-02-11T10:57:36;3.53;;;2.28;;
62796;SDS011;48839;48.546;-4.178;2023-02-11T11:02:29;5.28;;;2.40;;
62796;SDS011;48839;48.546;-4.178;2023-02-11T11:04:59;2.63;;;2.30;;
62796;SDS011;48839;48.546;-4.178;2023-02-11T11:07:27;3.65;;;2.55;;
62796;SDS011;48839;48.546;-4.178;2023-02-11T11:09:59;3.47;;;2.28;;
62796;SDS011;48839;48.546;-4.178;2023-02-11T11:14:53;8.02;;;5.35;;
62796;SDS011;48839;48.546;-4.178;2023-02-11T11:17:19;4.70;;;3.58;;
62796;SDS011;48839;48.546;-4.178;2023-02-11T11:19:46;2.78;;;1.80;;
62796;SDS011;48839;48.546;-4.178;2023-02-11T11:22:19;6.03;;;5.40;;
62796;SDS011;48839;48.546;-4.178;2023-02-11T11:27:18;1.65;;;1.30;;
62796;SDS011;48839;48.546;-4.178;2023-02-11T11:29:46;2.17;;;1.00;;
62796;SDS011;48839;48.546;-4.178;2023-02-11T11:32:26;1.02;;;0.80;;
62796;SDS011;48839;48.546;-4.178;2023-02-11T11:34:54;0.70;;;0.70;;
62796;SDS011;48839;48.546;-4.178;2023-02-11T11:37:25;0.52;;;0.52;;
62796;SDS011;48839;48.546;-4.178;2023-02-11T11:39:59;0.65;;;0.65;;
62796;SDS011;48839;48.546;-4.178;2023-02-11T11:42:31;2.58;;;1.98;;
62796;SDS011;48839;48.546;-4.178;2023-02-11T11:44:59;0.90;;;0.90;;
62796;SDS011;48839;48.546;-4.178;2023-02-11T11:47:26;0.85;;;0.85;;
62796;SDS011;48839;48.546;-4.178;2023-02-11T11:52:53;0.70;;;0.70;;
62796;SDS011;48839;48.546;-4.178;2023-02-11T11:55:21;0.60;;;0.60;;
62796;SDS011;48839;48.546;-4.178;2023-02-11T11:57:47;0.68;;;0.68;;
62796;SDS011;48839;48.546;-4.178;2023-02-11T12:00:14;0.45;;;0.45;;
62796;SDS011;48839;48.546;-4.178;2023-02-11T12:09:00;1.20;;;0.70;;
62796;SDS011;48839;48.546;-4.178;2023-02-11T12:21:43;0.60;;;0.60;;
62796;SDS011;48839;48.546;-4.178;2023-02-11T12:26:47;0.50;;;0.50;;
62796;SDS011;48839;48.546;-4.178;2023-02-11T12:34:40;0.75;;;0.75;;
62796;SDS011;48839;48.546;-4.178;2023-02-11T12:39:49;0.40;;;0.40;;
62796;SDS011;48839;48.546;-4.178;2023-02-11T12:50:14;0.60;;;0.60;;
62796;SDS011;48839;48.546;-4.178;2023-02-11T12:55:10;0.60;;;0.60;;
62796;SDS011;48839;48.546;-4.178;2023-02-11T12:57:39;1.50;;;0.70;;
62796;SDS011;48839;48.546;-4.178;2023-02-11T13:00:11;0.60;;;0.60;;
62796;SDS011;48839;48.546;-4.178;2023-02-11T13:06:16;4.03;;;1.55;;
62796;SDS011;48839;48.546;-4.178;2023-02-11T13:08:20;1.15;;;1.00;;
62796;SDS011;48839;48.546;-4.178;2023-02-11T13:10:53;0.70;;;0.70;;
62796;SDS011;48839;48.546;-4.178;2023-02-11T13:13:26;0.70;;;0.70;;
62796;SDS011;48839;48.546;-4.178;2023-02-11T13:16:04;0.80;;;0.80;;
62796;SDS011;48839;48.546;-4.178;2023-02-11T13:18:37;0.63;;;0.63;;
62796;SDS011;48839;48.546;-4.178;2023-02-11T13:23:50;1.30;;;1.20;;
62796;SDS011;48839;48.546;-4.178;2023-02-11T13:29:09;1.30;;;1.20;;
62796;SDS011;48839;48.546;-4.178;2023-02-11T13:31:36;1.17;;;1.08;;
62796;SDS011;48839;48.546;-4.178;2023-02-11T13:34:02;1.55;;;1.30;;
62796;SDS011;48839;48.546;-4.178;2023-02-11T13:36:28;1.73;;;1.60;;
62796;SDS011;48839;48.546;-4.178;2023-02-11T13:46:28;1.38;;;1.27;;
62796;SDS011;48839;48.546;-4.178;2023-02-11T13:48:54;1.40;;;1.23;;
62796;SDS011;48839;48.546;-4.178;2023-02-11T13:53:59;1.50;;;1.40;;
62796;SDS011;48839;48.546;-4.178;2023-02-11T13:56:28;1.02;;;1.00;;
62796;SDS011;48839;48.546;-4.178;2023-02-11T13:58:54;1.15;;;1.05;;
62796;SDS011;48839;48.546;-4.178;2023-02-11T14:04:18;0.90;;;0.90;;
62796;SDS011;48839;48.546;-4.178;2023-02-11T14:07:25;0.98;;;0.90;;
62796;SDS011;48839;48.546;-4.178;2023-02-11T14:12:33;1.55;;;1.27;;
62796;SDS011;48839;48.546;-4.178;2023-02-11T14:15:01;1.00;;;1.00;;
62796;SDS011;48839;48.546;-4.178;2023-02-11T14:17:28;1.00;;;1.00;;
62796;SDS011;48839;48.546;-4.178;2023-02-11T14:19:54;1.02;;;1.02;;
62796;SDS011;48839;48.546;-4.178;2023-02-11T14:22:22;1.00;;;1.00;;
62796;SDS011;48839;48.546;-4.178;2023-02-11T14:27:24;1.50;;;1.40;;
62796;SDS011;48839;48.546;-4.178;2023-02-11T14:35:02;1.55;;;1.38;;
62796;SDS011;48839;48.546;-4.178;2023-02-11T14:43:11;1.65;;;1.30;;
62796;SDS011;48839;48.546;-4.178;2023-02-11T14:45:38;1.45;;;1.27;;
62796;SDS011;48839;48.546;-4.178;2023-02-11T14:48:06;1.30;;;1.20;;
62796;SDS011;48839;48.546;-4.178;2023-02-11T14:50:47;1.88;;;1.35;;
62796;SDS011;48839;48.546;-4.178;2023-02-11T14:53:15;1.98;;;1.50;;
62796;SDS011;48839;48.546;-4.178;2023-02-11T14:55:42;1.80;;;1.70;;
62796;SDS011;48839;48.546;-4.178;2023-02-11T14:58:16;2.17;;;1.50;;
62796;SDS011;48839;48.546;-4.178;2023-02-11T15:05:54;1.83;;;1.67;;
62796;SDS011;48839;48.546;-4.178;2023-02-11T15:08:20;2.35;;;1.90;;
62796;SDS011;48839;48.546;-4.178;2023-02-11T15:10:46;2.40;;;1.83;;
62796;SDS011;48839;48.546;-4.178;2023-02-11T15:13:17;1.75;;;1.65;;
62796;SDS011;48839;48.546;-4.178;2023-02-11T15:15:44;2.10;;;1.60;;
62796;SDS011;48839;48.546;-4.178;2023-02-11T15:18:18;4.63;;;1.60;;
62796;SDS011;48839;48.546;-4.178;2023-02-11T15:20:46;2.63;;;1.60;;
62796;SDS011;48839;48.546;-4.178;2023-02-11T15:23:16;1.92;;;1.50;;
62796;SDS011;48839;48.546;-4.178;2023-02-11T15:25:45;2.55;;;1.83;;
62796;SDS011;48839;48.546;-4.178;2023-02-11T15:28:27;2.22;;;2.03;;
62796;SDS011;48839;48.546;-4.178;2023-02-11T15:30:57;2.38;;;2.17;;
62796;SDS011;48839;48.546;-4.178;2023-02-11T15:33:24;2.88;;;2.38;;
62796;SDS011;48839;48.546;-4.178;2023-02-11T15:35:50;2.00;;;1.67;;
62796;SDS011;48839;48.546;-4.178;2023-02-11T15:38:16;4.95;;;3.60;;
62796;SDS011;48839;48.546;-4.178;2023-02-11T15:40:53;5.50;;;2.63;;
62796;SDS011;48839;48.546;-4.178;2023-02-11T15:43:20;6.50;;;2.65;;
62796;SDS011;48839;48.546;-4.178;2023-02-11T15:45:53;2.80;;;2.25;;
62796;SDS011;48839;48.546;-4.178;2023-02-11T15:48:43;4.57;;;2.15;;
62796;SDS011;48839;48.546;-4.178;2023-02-11T15:51:21;2.90;;;2.30;;
62796;SDS011;48839;48.546;-4.178;2023-02-11T15:53:51;3.88;;;2.63;;
62796;SDS011;48839;48.546;-4.178;2023-02-11T15:56:28;5.80;;;3.40;;
62796;SDS011;48839;48.546;-4.178;2023-02-11T15:58:55;3.85;;;3.15;;
62796;SDS011;48839;48.546;-4.178;2023-02-11T16:01:31;3.70;;;3.15;;
62796;SDS011;48839;48.546;-4.178;2023-02-11T16:03:58;3.47;;;3.08;;
62796;SDS011;48839;48.546;-4.178;2023-02-11T16:06:25;3.80;;;3.40;;
62796;SDS011;48839;48.546;-4.178;2023-02-11T16:08:58;3.97;;;3.22;;
62796;SDS011;48839;48.546;-4.178;2023-02-11T16:11:30;4.13;;;2.97;;
62796;SDS011;48839;48.546;-4.178;2023-02-11T16:13:57;3.95;;;3.47;;
62796;SDS011;48839;48.546;-4.178;2023-02-11T16:16:25;4.97;;;3.92;;
62796;SDS011;48839;48.546;-4.178;2023-02-11T16:18:53;4.78;;;3.45;;
62796;SDS011;48839;48.546;-4.178;2023-02-11T16:21:20;4.85;;;4.10;;
62796;SDS011;48839;48.546;-4.178;2023-02-11T16:23:52;5.45;;;3.95;;
62796;SDS011;48839;48.546;-4.178;2023-02-11T16:26:23;5.63;;;4.15;;
62796;SDS011;48839;48.546;-4.178;2023-02-11T16:28:50;4.70;;;3.90;;
62796;SDS011;48839;48.546;-4.178;2023-02-11T16:31:16;7.28;;;3.80;;
62796;SDS011;48839;48.546;-4.178;2023-02-11T16:33:43;6.32;;;3.38;;
62796;SDS011;48839;48.546;-4.178;2023-02-11T16:36:10;3.80;;;3.20;;
62796;SDS011;48839;48.546;-4.178;2023-02-11T16:38:36;8.02;;;3.72;;
62796;SDS011;48839;48.546;-4.178;2023-02-11T16:41:02;3.97;;;3.38;;
62796;SDS011;48839;48.546;-4.178;2023-02-11T16:43:28;5.05;;;4.10;;
62796;SDS011;48839;48.546;-4.178;2023-02-11T16:45:54;4.68;;;3.58;;
62796;SDS011;48839;48.546;-4.178;2023-02-11T16:48:22;4.13;;;3.65;;
62796;SDS011;48839;48.546;-4.178;2023-02-11T16:50:49;4.32;;;3.78;;
62796;SDS011;48839;48.546;-4.178;2023-02-11T16:53:16;5.53;;;3.63;;
62796;SDS011;48839;48.546;-4.178;2023-02-11T16:55:43;4.63;;;3.78;;
62796;SDS011;48839;48.546;-4.178;2023-02-11T16:58:09;9.32;;;4.25;;
62796;SDS011;48839;48.546;-4.178;2023-02-11T17:00:35;7.10;;;4.15;;